createdAt,value
2022-10-09T00:01:12.288Z,10.05
2022-10-09T00:03:18.395Z,13.27
2022-10-09T00:05:26.877Z,10.90
2022-10-09T00:07:31.659Z,9.13
2022-10-09T00:09:39.018Z,13.60
2022-10-09T00:11:43.746Z,9.65
2022-10-09T00:13:48.921Z,15.18
2022-10-09T00:15:53.713Z,18.83
2022-10-09T00:17:58.505Z,28.88
2022-10-09T00:20:03.296Z,45.47
2022-10-09T00:22:08.063Z,23.52
2022-10-09T00:24:12.936Z,12.88
2022-10-09T00:26:20.734Z,9.20
2022-10-09T00:28:26.825Z,9.38
2022-10-09T00:30:32.020Z,12.68
2022-10-09T00:32:36.817Z,10.55
2022-10-09T00:34:41.556Z,13.13
2022-10-09T00:36:46.748Z,8.68
2022-10-09T00:38:51.922Z,12.90
2022-10-09T00:40:56.699Z,12.23
2022-10-09T00:43:04.125Z,10.85
2022-10-09T00:45:14.931Z,9.75
2022-10-09T00:47:23.487Z,9.43
2022-10-09T00:49:31.369Z,9.68
2022-10-09T00:51:37.442Z,10.13
2022-10-09T00:53:42.212Z,10.82
2022-10-09T00:55:47.071Z,10.32
2022-10-09T00:57:53.135Z,10.02
2022-10-09T01:00:01.563Z,14.00
2022-10-09T01:02:06.332Z,12.50
2022-10-09T01:04:11.600Z,10.65
2022-10-09T01:08:30.991Z,13.27
2022-10-09T01:10:42.399Z,11.95
2022-10-09T01:12:54.570Z,10.90
2022-10-09T01:15:10.599Z,10.52
2022-10-09T01:17:24.115Z,9.25
2022-10-09T01:19:59.542Z,13.10
2022-10-09T01:22:13.397Z,11.48
2022-10-09T01:24:28.168Z,9.10
2022-10-09T01:26:56.067Z,10.00
2022-10-09T01:29:07.545Z,9.15
2022-10-09T01:31:14.004Z,8.55
2022-10-09T01:33:19.527Z,9.32
2022-10-09T01:35:25.736Z,10.45
2022-10-09T01:37:33.190Z,9.65
2022-10-09T01:39:38.469Z,9.85
2022-10-09T01:43:48.469Z,7.72
2022-10-09T01:45:55.920Z,11.57
2022-10-09T01:48:02.409Z,8.40
2022-10-09T01:50:14.885Z,9.70
2022-10-09T01:52:31.699Z,12.98
2022-10-09T01:54:42.492Z,10.77
2022-10-09T01:56:52.143Z,7.20
2022-10-09T01:58:59.577Z,10.70
2022-10-09T02:01:10.694Z,9.90
2022-10-09T02:03:18.038Z,7.95
2022-10-09T02:05:25.511Z,8.98
2022-10-09T02:07:32.485Z,7.28
2022-10-09T02:09:38.837Z,10.10
2022-10-09T02:11:47.980Z,8.75
2022-10-09T02:13:55.206Z,10.60
2022-10-09T02:16:06.937Z,6.93
2022-10-09T02:18:17.816Z,6.88
2022-10-09T02:20:28.051Z,5.95
2022-10-09T02:22:35.330Z,10.25
2022-10-09T02:24:42.313Z,12.00
2022-10-09T02:26:47.091Z,8.65
2022-10-09T02:28:52.398Z,9.57
2022-10-09T02:31:04.801Z,7.45
2022-10-09T02:33:09.615Z,7.97
2022-10-09T02:35:16.941Z,9.60
2022-10-09T02:37:21.876Z,7.85
2022-10-09T02:39:26.877Z,10.00
2022-10-09T02:41:31.784Z,7.00
2022-10-09T02:43:36.545Z,8.82
2022-10-09T02:45:41.291Z,6.93
2022-10-09T02:47:46.016Z,7.68
2022-10-09T02:49:50.736Z,9.93
2022-10-09T02:51:58.055Z,8.02
2022-10-09T02:54:02.909Z,7.53
2022-10-09T02:56:08.174Z,10.20
2022-10-09T02:58:12.921Z,10.80
2022-10-09T03:00:18.405Z,9.25
2022-10-09T03:02:23.241Z,7.97
2022-10-09T03:04:28.181Z,11.35
2022-10-09T03:06:32.871Z,9.73
2022-10-09T03:08:41.325Z,9.00
2022-10-09T03:10:46.006Z,7.82
2022-10-09T03:12:51.363Z,7.07
2022-10-09T03:14:56.472Z,10.70
2022-10-09T03:17:01.321Z,10.07
2022-10-09T03:19:06.284Z,8.27
2022-10-09T03:21:12.456Z,9.20
2022-10-09T03:23:17.206Z,8.23
2022-10-09T03:25:25.134Z,8.65
2022-10-09T03:27:31.136Z,7.22
2022-10-09T03:29:38.623Z,7.55
2022-10-09T03:31:52.908Z,7.93
2022-10-09T03:33:57.981Z,8.63
2022-10-09T03:36:02.682Z,9.10
2022-10-09T03:38:07.411Z,5.72
2022-10-09T03:40:13.276Z,6.32
2022-10-09T03:42:20.702Z,8.50
2022-10-09T03:44:25.442Z,5.53
2022-10-09T03:46:30.625Z,6.03
2022-10-09T03:50:40.505Z,6.75
2022-10-09T03:52:45.250Z,5.20
2022-10-09T03:54:50.022Z,6.20
2022-10-09T03:56:54.694Z,5.47
2022-10-09T03:59:02.133Z,9.15
2022-10-09T04:01:07.031Z,5.60
2022-10-09T04:03:11.827Z,6.53
2022-10-09T04:05:16.807Z,5.93
2022-10-09T04:07:21.862Z,5.85
2022-10-09T04:09:26.564Z,8.30
2022-10-09T04:11:31.369Z,6.55
2022-10-09T04:13:36.224Z,8.52
2022-10-09T04:15:43.583Z,7.65
2022-10-09T04:17:48.295Z,6.30
2022-10-09T04:19:53.119Z,9.43
2022-10-09T04:21:57.824Z,7.30
2022-10-09T04:24:03.715Z,7.28
2022-10-09T04:26:08.915Z,8.30
2022-10-09T04:30:18.533Z,6.00
2022-10-09T04:32:25.990Z,5.93
2022-10-09T04:34:30.704Z,8.15
2022-10-09T04:36:35.626Z,7.13
2022-10-09T04:38:40.436Z,7.68
2022-10-09T04:40:45.139Z,6.95
2022-10-09T04:42:50.132Z,8.00
2022-10-09T04:46:59.617Z,6.90
2022-10-09T04:49:07.090Z,6.68
2022-10-09T04:51:12.997Z,8.23
2022-10-09T04:53:18.105Z,6.35
2022-10-09T04:55:22.925Z,5.63
2022-10-09T04:57:27.664Z,8.90
2022-10-09T04:59:32.587Z,11.30
2022-10-09T05:01:38.631Z,6.68
2022-10-09T05:03:43.612Z,6.63
2022-10-09T05:05:50.951Z,8.48
2022-10-09T05:07:55.697Z,9.50
2022-10-09T05:10:00.590Z,8.80
2022-10-09T05:12:05.286Z,7.85
2022-10-09T05:14:10.611Z,8.60
2022-10-09T05:16:18.492Z,9.02
2022-10-09T05:18:23.293Z,7.32
2022-10-09T05:20:28.036Z,7.65
2022-10-09T05:22:35.422Z,9.13
2022-10-09T05:24:40.155Z,6.10
2022-10-09T05:26:44.887Z,9.35
2022-10-09T05:28:50.184Z,9.88
2022-10-09T05:30:55.502Z,6.88
2022-10-09T05:33:00.326Z,6.15
2022-10-09T05:35:05.091Z,7.53
2022-10-09T05:37:09.849Z,7.38
2022-10-09T05:39:17.238Z,7.07
2022-10-09T05:41:22.341Z,7.68
2022-10-09T05:43:27.697Z,7.38
2022-10-09T05:47:36.987Z,6.35
2022-10-09T05:49:41.917Z,6.57
2022-10-09T05:51:46.642Z,6.32
2022-10-09T05:53:52.265Z,11.13
2022-10-09T05:56:03.556Z,16.30
2022-10-09T05:58:08.631Z,10.30
2022-10-09T06:00:15.336Z,6.03
2022-10-09T06:02:20.173Z,6.63
2022-10-09T06:04:26.806Z,6.82
2022-10-09T06:06:34.043Z,7.72
2022-10-09T06:08:40.234Z,6.70
2022-10-09T06:10:44.969Z,6.28
2022-10-09T06:12:52.431Z,6.80
2022-10-09T06:14:57.121Z,7.57
2022-10-09T06:17:02.500Z,7.55
2022-10-09T06:21:12.828Z,8.63
2022-10-09T06:23:17.525Z,9.43
2022-10-09T06:25:22.300Z,8.50
2022-10-09T06:27:27.130Z,10.38
2022-10-09T06:29:34.637Z,8.25
2022-10-09T06:31:39.358Z,7.78
2022-10-09T06:33:45.703Z,12.52
2022-10-09T06:35:50.504Z,7.40
2022-10-09T06:37:55.330Z,6.80
2022-10-09T06:40:00.045Z,6.28
2022-10-09T06:42:04.760Z,5.88
2022-10-09T06:44:18.594Z,5.85
2022-10-09T06:46:28.025Z,5.75
2022-10-09T06:48:33.595Z,8.43
2022-10-09T06:50:39.644Z,7.15
2022-10-09T06:52:44.362Z,5.95
2022-10-09T06:54:49.095Z,7.65
2022-10-09T06:56:53.945Z,7.22
2022-10-09T06:58:59.242Z,7.28
2022-10-09T07:03:15.369Z,8.25
2022-10-09T07:05:20.254Z,8.52
2022-10-09T07:07:24.987Z,9.38
2022-10-09T07:09:29.826Z,7.40
2022-10-09T07:11:37.011Z,8.68
2022-10-09T07:13:41.893Z,7.43
2022-10-09T07:15:48.109Z,7.80
2022-10-09T07:17:52.940Z,7.82
2022-10-09T07:20:00.389Z,6.75
2022-10-09T07:22:05.139Z,7.72
2022-10-09T07:24:11.199Z,7.85
2022-10-09T07:26:18.332Z,7.30
2022-10-09T07:28:23.161Z,9.18
2022-10-09T07:30:27.919Z,9.50
2022-10-09T07:32:32.757Z,8.50
2022-10-09T07:34:37.475Z,7.32
2022-10-09T07:36:44.806Z,7.45
2022-10-09T07:38:55.348Z,7.15
2022-10-09T07:41:03.589Z,6.78
2022-10-09T07:43:08.311Z,7.30
2022-10-09T07:45:13.737Z,6.85
2022-10-09T07:47:18.438Z,7.10
2022-10-09T07:49:23.414Z,9.43
2022-10-09T07:51:29.765Z,9.32
2022-10-09T07:53:37.111Z,8.63
2022-10-09T07:55:48.131Z,6.88
2022-10-09T07:57:53.498Z,6.60
2022-10-09T08:02:02.681Z,6.65
2022-10-09T08:04:08.329Z,6.57
2022-10-09T08:06:13.286Z,7.38
2022-10-09T08:08:18.012Z,8.43
2022-10-09T08:10:25.401Z,7.78
2022-10-09T08:12:30.155Z,6.68
2022-10-09T08:14:35.037Z,9.25
2022-10-09T08:16:39.807Z,9.07
2022-10-09T08:18:44.656Z,7.03
2022-10-09T08:20:59.734Z,6.32
2022-10-09T08:23:04.660Z,7.50
2022-10-09T08:25:10.343Z,7.10
2022-10-09T08:27:17.671Z,6.50
2022-10-09T08:29:22.427Z,6.15
2022-10-09T08:31:28.157Z,7.25
2022-10-09T08:33:32.900Z,6.32
2022-10-09T08:35:37.644Z,7.30
2022-10-09T08:37:42.619Z,6.43
2022-10-09T08:39:47.498Z,7.63
2022-10-09T08:41:56.037Z,5.05
2022-10-09T08:44:06.106Z,5.35
2022-10-09T08:46:21.074Z,7.85
2022-10-09T08:48:29.516Z,4.32
2022-10-09T08:50:38.250Z,5.43
2022-10-09T08:52:50.242Z,6.45
2022-10-09T08:54:57.150Z,5.60
2022-10-09T08:57:05.862Z,7.57
2022-10-09T08:59:15.069Z,5.32
2022-10-09T09:01:27.765Z,5.93
2022-10-09T09:03:46.958Z,7.53
2022-10-09T09:05:57.938Z,5.00
2022-10-09T09:08:09.976Z,11.52
2022-10-09T09:10:20.358Z,6.13
2022-10-09T09:12:36.617Z,7.43
2022-10-09T09:14:56.842Z,4.45
2022-10-09T09:17:07.936Z,6.45
2022-10-09T09:19:28.027Z,4.43
2022-10-09T09:21:42.279Z,6.03
2022-10-09T09:23:50.426Z,6.00
2022-10-09T09:25:55.195Z,3.95
2022-10-09T09:28:08.767Z,4.30
2022-10-09T09:30:23.524Z,4.22
2022-10-09T09:32:31.784Z,7.07
2022-10-09T09:34:41.942Z,6.80
2022-10-09T09:36:52.493Z,5.60
2022-10-09T09:41:22.142Z,5.70
2022-10-09T09:43:28.794Z,5.45
2022-10-09T09:45:36.192Z,3.47
2022-10-09T09:47:46.453Z,3.00
2022-10-09T09:50:00.266Z,4.47
2022-10-09T09:52:05.826Z,5.32
2022-10-09T09:54:19.485Z,4.15
2022-10-09T09:56:53.355Z,4.97
2022-10-09T09:58:59.536Z,3.17
2022-10-09T10:01:09.096Z,3.20
2022-10-09T10:03:16.888Z,5.43
2022-10-09T10:05:27.508Z,2.88
2022-10-09T10:07:34.750Z,6.50
2022-10-09T10:09:39.464Z,4.90
2022-10-09T10:11:49.021Z,3.15
2022-10-09T10:13:53.787Z,3.05
2022-10-09T10:16:00.548Z,3.20
2022-10-09T10:18:10.438Z,6.30
2022-10-09T10:20:18.282Z,3.72
2022-10-09T10:22:28.198Z,4.30
2022-10-09T10:24:37.293Z,4.28
2022-10-09T10:26:46.235Z,5.15
2022-10-09T10:28:56.122Z,3.25
2022-10-09T10:31:05.875Z,2.97
2022-10-09T10:33:22.263Z,3.38
2022-10-09T10:35:29.792Z,4.72
2022-10-09T10:37:43.773Z,3.15
2022-10-09T10:39:53.133Z,2.67
2022-10-09T10:42:02.318Z,5.55
2022-10-09T10:44:12.484Z,2.85
2022-10-09T10:46:24.899Z,4.03
2022-10-09T10:48:34.206Z,4.40
2022-10-09T10:50:43.971Z,2.67
2022-10-09T10:53:02.689Z,5.43
2022-10-09T10:55:26.855Z,4.68
2022-10-09T10:57:41.320Z,3.33
2022-10-09T10:59:54.677Z,3.22
2022-10-09T11:02:19.534Z,5.78
2022-10-09T11:04:49.694Z,3.05
2022-10-09T11:07:02.546Z,3.28
2022-10-09T11:09:15.380Z,2.63
2022-10-09T11:11:25.464Z,5.57
2022-10-09T11:13:35.086Z,4.85
2022-10-09T11:15:49.923Z,5.15
2022-10-09T11:18:00.338Z,6.03
2022-10-09T11:20:33.287Z,5.65
2022-10-09T11:22:47.398Z,4.32
2022-10-09T11:25:05.966Z,4.53
2022-10-09T11:27:16.867Z,4.28
2022-10-09T11:29:28.275Z,4.18
2022-10-09T11:31:38.017Z,4.13
2022-10-09T11:33:48.565Z,3.55
2022-10-09T11:36:00.447Z,2.95
2022-10-09T11:38:08.255Z,4.50
2022-10-09T11:40:19.518Z,6.28
2022-10-09T11:42:27.716Z,2.53
2022-10-09T11:44:43.326Z,3.47
2022-10-09T11:46:52.234Z,3.20
2022-10-09T11:49:08.020Z,2.90
2022-10-09T11:51:26.141Z,2.00
2022-10-09T11:53:34.517Z,2.60
2022-10-09T11:55:39.563Z,3.33
2022-10-09T11:59:48.945Z,3.67
2022-10-09T12:01:53.766Z,5.35
2022-10-09T12:04:04.692Z,3.42
2022-10-09T12:06:12.568Z,3.17
2022-10-09T12:08:27.400Z,3.40
2022-10-09T12:10:35.187Z,4.82
2022-10-09T12:12:40.454Z,5.03
2022-10-09T12:14:47.870Z,1.90
2022-10-09T12:16:52.661Z,3.72
2022-10-09T12:18:58.358Z,2.70
2022-10-09T12:21:08.262Z,2.90
2022-10-09T12:23:26.353Z,3.83
2022-10-09T12:25:43.980Z,3.25
2022-10-09T12:27:50.565Z,3.22
2022-10-09T12:29:58.655Z,3.17
2022-10-09T12:32:08.208Z,2.85
2022-10-09T12:34:20.476Z,3.25
2022-10-09T12:36:27.635Z,3.90
2022-10-09T12:38:34.414Z,4.43
2022-10-09T12:40:49.202Z,2.75
2022-10-09T12:42:55.380Z,3.47
2022-10-09T12:45:00.233Z,4.20
2022-10-09T12:47:08.135Z,3.70
2022-10-09T12:49:22.501Z,4.88
2022-10-09T12:51:28.952Z,2.47
2022-10-09T12:53:33.714Z,4.55
2022-10-09T12:55:44.569Z,7.03
2022-10-09T12:57:49.421Z,5.53
2022-10-09T12:59:54.738Z,4.10
2022-10-09T13:02:02.188Z,2.65
2022-10-09T13:04:09.474Z,2.90
2022-10-09T13:06:19.808Z,3.55
2022-10-09T13:08:29.052Z,2.05
2022-10-09T13:10:33.929Z,3.10
2022-10-09T13:12:41.290Z,3.30
2022-10-09T13:14:47.687Z,3.00
2022-10-09T13:16:52.444Z,2.78
2022-10-09T13:19:01.528Z,2.97
2022-10-09T13:21:09.498Z,2.78
2022-10-09T13:23:30.219Z,3.58
2022-10-09T13:25:37.699Z,2.17
2022-10-09T13:27:45.088Z,4.78
2022-10-09T13:29:50.318Z,1.45
2022-10-09T13:31:55.182Z,2.40
2022-10-09T13:33:59.909Z,3.70
2022-10-09T13:36:04.648Z,4.13
2022-10-09T13:38:09.528Z,5.90
2022-10-09T13:40:18.185Z,3.58
2022-10-09T13:42:25.197Z,2.88
2022-10-09T13:44:32.643Z,2.85
2022-10-09T13:46:37.454Z,3.42
2022-10-09T13:48:42.223Z,2.85
2022-10-09T13:50:47.039Z,5.22
2022-10-09T13:52:51.894Z,4.20
2022-10-09T13:54:56.637Z,5.05
2022-10-09T13:57:01.529Z,2.72
2022-10-09T13:59:06.431Z,3.30
2022-10-09T14:01:13.930Z,3.33
2022-10-09T14:03:19.217Z,4.10
2022-10-09T14:05:26.633Z,3.33
2022-10-09T14:07:31.390Z,7.43
2022-10-09T14:09:36.186Z,2.72
2022-10-09T14:11:40.938Z,1.67
2022-10-09T14:13:45.746Z,3.03
2022-10-09T14:15:51.717Z,3.47
2022-10-09T14:17:59.444Z,4.75
2022-10-09T14:20:04.239Z,5.30
2022-10-09T14:22:09.025Z,4.15
2022-10-09T14:24:14.543Z,4.72
2022-10-09T14:26:19.348Z,5.10
2022-10-09T14:28:24.085Z,1.90
2022-10-09T14:30:28.869Z,1.95
2022-10-09T14:32:33.691Z,1.98
2022-10-09T14:34:41.828Z,2.83
2022-10-09T14:36:46.659Z,2.70
2022-10-09T14:38:52.691Z,3.08
2022-10-09T14:40:59.190Z,2.17
2022-10-09T14:43:03.959Z,2.22
2022-10-09T14:45:10.408Z,2.10
2022-10-09T14:47:15.127Z,2.38
2022-10-09T14:49:21.550Z,1.67
2022-10-09T14:51:34.779Z,5.13
2022-10-09T14:53:41.495Z,2.72
2022-10-09T14:55:46.228Z,2.10
2022-10-09T14:57:50.939Z,3.08
2022-10-09T14:59:55.894Z,2.88
2022-10-09T15:02:01.381Z,1.30
2022-10-09T15:04:07.287Z,2.85
2022-10-09T15:06:14.363Z,2.78
2022-10-09T15:08:21.737Z,2.38
2022-10-09T15:10:26.480Z,5.50
2022-10-09T15:12:31.231Z,5.82
2022-10-09T15:14:35.978Z,5.93
2022-10-09T15:16:40.881Z,4.25
2022-10-09T15:18:46.651Z,4.25
2022-10-09T15:20:51.819Z,5.25
2022-10-09T15:25:03.712Z,5.13
2022-10-09T15:27:08.718Z,3.88
2022-10-09T15:31:24.501Z,10.75
2022-10-09T15:33:29.529Z,7.53
2022-10-09T15:35:35.873Z,6.40
2022-10-09T15:37:40.778Z,6.30
2022-10-09T15:39:45.532Z,7.28
2022-10-09T15:41:53.032Z,5.35
2022-10-09T15:43:59.628Z,7.28
2022-10-09T15:46:06.114Z,4.57
2022-10-09T15:48:16.317Z,7.28
2022-10-09T15:50:21.144Z,6.32
2022-10-09T15:52:25.864Z,7.07
2022-10-09T15:54:30.815Z,6.40
2022-10-09T15:56:39.704Z,6.80
2022-10-09T15:58:47.651Z,7.47
2022-10-09T16:00:52.970Z,4.25
2022-10-09T16:02:57.746Z,5.05
2022-10-09T16:05:02.700Z,3.78
2022-10-09T16:07:08.090Z,7.22
2022-10-09T16:09:12.887Z,4.80
2022-10-09T16:11:21.922Z,4.53
2022-10-09T16:13:30.027Z,5.13
2022-10-09T16:15:37.454Z,3.70
2022-10-09T16:17:42.192Z,6.35
2022-10-09T16:19:46.951Z,3.65
2022-10-09T16:21:52.181Z,4.53
2022-10-09T16:26:05.190Z,4.53
2022-10-09T16:28:12.467Z,4.68
2022-10-09T16:30:18.029Z,6.47
2022-10-09T16:32:25.660Z,5.25
2022-10-09T16:34:30.409Z,5.45
2022-10-09T16:36:35.271Z,7.38
2022-10-09T16:38:40.308Z,6.68
2022-10-09T16:41:04.562Z,6.20
2022-10-09T16:43:09.553Z,6.13
2022-10-09T16:45:14.398Z,5.03
2022-10-09T16:47:19.133Z,5.90
2022-10-09T16:49:26.831Z,4.97
2022-10-09T16:51:33.294Z,5.15
2022-10-09T16:53:38.417Z,4.32
2022-10-09T16:57:48.287Z,7.55
2022-10-09T16:59:53.362Z,5.95
2022-10-09T17:01:58.211Z,6.93
2022-10-09T17:04:03.089Z,7.65
2022-10-09T17:06:15.223Z,6.25
2022-10-09T17:08:20.160Z,4.07
2022-10-09T17:10:24.945Z,6.45
2022-10-09T17:12:30.880Z,8.40
2022-10-09T17:14:36.616Z,7.13
2022-10-09T17:16:43.438Z,8.68
2022-10-09T17:18:48.637Z,10.57
2022-10-09T17:23:00.787Z,9.95
2022-10-09T17:25:05.597Z,8.93
2022-10-09T17:27:10.706Z,8.60
2022-10-09T17:29:16.682Z,11.73
2022-10-09T17:31:23.323Z,12.50
2022-10-09T17:33:28.263Z,9.55
2022-10-09T17:35:33.522Z,11.15
2022-10-09T17:39:49.719Z,14.63
2022-10-09T17:41:56.763Z,13.57
2022-10-09T17:44:01.900Z,12.20
2022-10-09T17:48:12.695Z,12.52
2022-10-09T17:50:17.581Z,11.35
2022-10-09T17:52:22.293Z,10.20
2022-10-09T17:54:26.996Z,11.20
2022-10-09T17:56:34.851Z,7.30
2022-10-09T17:58:39.564Z,9.48
2022-10-09T18:00:44.346Z,6.80
2022-10-09T18:02:49.272Z,9.00
2022-10-09T18:04:57.365Z,10.52
2022-10-09T18:07:02.423Z,6.93
2022-10-09T18:09:07.582Z,6.65
2022-10-09T18:11:14.952Z,6.00
2022-10-09T18:13:22.324Z,7.13
2022-10-09T18:15:27.034Z,6.53
2022-10-09T18:17:33.516Z,8.63
2022-10-09T18:19:38.287Z,5.90
2022-10-09T18:21:45.494Z,6.95
2022-10-09T18:23:50.938Z,7.07
2022-10-09T18:25:55.713Z,5.35
2022-10-09T18:28:00.521Z,7.05
2022-10-09T18:30:08.990Z,6.90
2022-10-09T18:32:13.983Z,9.07
2022-10-09T18:34:19.015Z,7.80
2022-10-09T18:36:25.933Z,6.32
2022-10-09T18:38:30.915Z,8.38
2022-10-09T18:40:35.772Z,7.68
2022-10-09T18:42:40.649Z,7.10
2022-10-09T18:44:45.390Z,10.60
2022-10-09T18:46:56.773Z,7.70
2022-10-09T18:49:01.692Z,9.63
2022-10-09T18:51:08.051Z,7.38
2022-10-09T18:53:13.811Z,7.90
2022-10-09T18:55:20.820Z,8.65
2022-10-09T18:57:29.015Z,6.93
2022-10-09T18:59:34.049Z,11.30
2022-10-09T19:01:38.868Z,9.20
2022-10-09T19:03:49.256Z,6.85
2022-10-09T19:05:55.099Z,6.30
2022-10-09T19:07:59.959Z,5.88
2022-10-09T19:10:05.420Z,7.68
2022-10-09T19:12:10.347Z,7.30
2022-10-09T19:14:15.971Z,9.63
2022-10-09T19:16:20.794Z,5.45
2022-10-09T19:18:26.118Z,7.22
2022-10-09T19:20:33.794Z,6.53
2022-10-09T19:22:38.681Z,6.32
2022-10-09T19:24:43.839Z,6.60
2022-10-09T19:26:48.710Z,7.03
2022-10-09T19:28:53.529Z,6.72
2022-10-09T19:30:58.261Z,6.28
2022-10-09T19:33:03.036Z,8.55
2022-10-09T19:35:09.342Z,6.18
2022-10-09T19:37:16.875Z,8.13
2022-10-09T19:39:22.343Z,7.38
2022-10-09T19:41:27.166Z,6.70
2022-10-09T19:43:31.956Z,5.53
2022-10-09T19:45:37.044Z,7.70
2022-10-09T19:47:41.862Z,8.48
2022-10-09T19:49:46.858Z,8.30
2022-10-09T19:51:51.710Z,6.18
2022-10-09T19:53:59.213Z,8.93
2022-10-09T19:56:04.324Z,5.80
2022-10-09T20:00:15.554Z,7.70
2022-10-09T20:02:20.370Z,6.28
2022-10-09T20:04:25.286Z,8.45
2022-10-09T20:06:31.105Z,5.63
2022-10-09T20:08:35.818Z,7.50
2022-10-09T20:10:43.196Z,7.38
2022-10-09T20:12:48.266Z,8.23
2022-10-09T20:14:53.388Z,6.80
2022-10-09T20:16:58.238Z,6.68
2022-10-09T20:19:03.610Z,8.45
2022-10-09T20:21:08.796Z,7.85
2022-10-09T20:25:18.585Z,6.68
2022-10-09T20:27:25.974Z,5.00
2022-10-09T20:29:30.868Z,5.40
2022-10-09T20:31:35.684Z,7.90
2022-10-09T20:33:41.682Z,6.55
2022-10-09T20:35:46.530Z,7.20
2022-10-09T20:37:51.257Z,5.55
2022-10-09T20:39:56.046Z,4.35
2022-10-09T20:42:00.834Z,4.72
2022-10-09T20:44:08.526Z,6.82
2022-10-09T20:46:15.121Z,7.30
2022-10-09T20:48:19.890Z,9.68
2022-10-09T20:50:24.863Z,5.13
2022-10-09T20:52:29.568Z,5.47
2022-10-09T20:54:34.325Z,4.75
2022-10-09T20:56:39.393Z,4.85
2022-10-09T20:58:44.794Z,15.90
2022-10-09T21:00:52.238Z,17.23
2022-10-09T21:02:57.126Z,23.50
2022-10-09T21:05:01.905Z,12.90
2022-10-09T21:07:06.799Z,15.63
2022-10-09T21:09:11.846Z,7.85
2022-10-09T21:11:18.467Z,12.73
2022-10-09T21:13:23.384Z,22.35
2022-10-09T21:15:28.216Z,69.72
2022-10-09T21:17:35.578Z,56.72
2022-10-09T21:19:40.364Z,13.05
2022-10-09T21:21:50.082Z,8.25
2022-10-09T21:23:57.925Z,5.90
2022-10-09T21:26:02.925Z,5.70
2022-10-09T21:28:08.102Z,7.20
2022-10-09T21:30:14.563Z,5.18
2022-10-09T21:32:19.323Z,5.30
2022-10-09T21:34:26.687Z,4.38
2022-10-09T21:36:56.174Z,5.43
2022-10-09T21:39:08.695Z,7.22
2022-10-09T21:41:13.457Z,4.35
2022-10-09T21:43:18.380Z,4.72
2022-10-09T21:45:23.093Z,4.18
2022-10-09T21:47:27.949Z,7.10
2022-10-09T21:49:35.259Z,6.22
2022-10-09T21:51:40.008Z,3.95
2022-10-09T21:53:44.722Z,4.75
2022-10-09T21:55:49.521Z,5.00
2022-10-09T21:57:54.289Z,4.80
2022-10-09T21:59:59.069Z,4.10
2022-10-09T22:02:03.781Z,4.20
2022-10-09T22:04:08.673Z,5.90
2022-10-09T22:06:20.375Z,3.53
2022-10-09T22:08:25.971Z,6.85
2022-10-09T22:10:30.661Z,5.68
2022-10-09T22:12:35.936Z,6.78
2022-10-09T22:16:45.318Z,6.03
2022-10-09T22:18:50.025Z,5.15
2022-10-09T22:20:55.070Z,4.32
2022-10-09T22:23:02.633Z,5.90
2022-10-09T22:25:08.616Z,5.63
2022-10-09T22:27:13.304Z,5.30
2022-10-09T22:29:18.162Z,5.60
2022-10-09T22:31:25.166Z,4.80
2022-10-09T22:33:30.134Z,4.90
2022-10-09T22:35:34.874Z,5.68
2022-10-09T22:37:39.596Z,6.32
2022-10-09T22:39:46.916Z,5.03
2022-10-09T22:41:51.853Z,5.57
2022-10-09T22:43:58.489Z,8.02
2022-10-09T22:46:06.660Z,7.88
2022-10-09T22:48:11.360Z,8.40
2022-10-09T22:50:16.251Z,9.50
2022-10-09T22:52:20.922Z,7.07
2022-10-09T22:54:25.617Z,5.55
2022-10-09T22:56:35.672Z,6.22
2022-10-09T22:58:40.544Z,5.25
2022-10-09T23:00:45.358Z,7.55
2022-10-09T23:02:50.300Z,5.80
2022-10-09T23:04:55.186Z,5.50
2022-10-09T23:07:01.759Z,5.28
2022-10-09T23:09:07.945Z,5.35
2022-10-09T23:11:13.354Z,7.30
2022-10-09T23:13:21.801Z,3.58
2022-10-09T23:15:26.569Z,4.65
2022-10-09T23:17:31.291Z,4.68
2022-10-09T23:19:36.063Z,5.53
2022-10-09T23:21:42.798Z,4.85
2022-10-09T23:23:48.888Z,6.85
2022-10-09T23:25:53.619Z,4.78
2022-10-09T23:27:58.395Z,6.10
2022-10-09T23:30:05.864Z,4.25
2022-10-09T23:32:10.633Z,4.13
2022-10-09T23:34:15.797Z,6.30
2022-10-09T23:38:26.055Z,5.50
2022-10-09T23:40:30.813Z,7.05
2022-10-09T23:42:35.543Z,9.20
2022-10-09T23:44:40.294Z,7.63
2022-10-09T23:46:47.608Z,5.40
2022-10-09T23:48:53.917Z,6.28
2022-10-09T23:50:59.773Z,4.63
2022-10-09T23:53:04.498Z,5.47
2022-10-09T23:55:10.466Z,5.85
2022-10-09T23:57:15.264Z,5.45
2022-10-09T23:59:20.125Z,6.95
